Flight Track Log - Related Links

Times and Time Zones

All times are in EST time to prevent confusion due to time zone crossing. See the KAP927 flight status page for this flight to view local times or setup timezone preferences in your user account.

Time Position Orientation Groundspeed Altitude Reporting Facility
EST Latitude Longitude Course Direction KTS MPH feet Rate Location/Type
Sun 03:05:54 PM 42.7497 -73.8231 267° West 113 130 1,300  Level Boston Center
Sun 03:06:54 PM 42.7736 -73.8456 325° Northwest 106 122 2,100 783 Climbing Boston Center
Sun 03:07:03 PM 42.7772 -73.8486 328° Northwest 110 127 2,200 787 Climbing Boston Center
Sun 03:07:55 PM 42.7992 -73.8689 326° Northwest 108 124 2,900 787 Climbing Boston Center
Sun 03:08:04 PM 42.8028 -73.8700 347° North 107 123 3,000 700 Climbing Boston Center
Sun 03:08:55 PM 42.8256 -73.8894 328° Northwest 110 127 3,600 689 Climbing Boston Center
Sun 03:09:05 PM 42.8289 -73.8914 337° Northwest 109 125 3,700 676 Climbing Boston Center
Sun 03:10:06 PM 42.8567 -73.9153 328° Northwest 116 133 4,400 639 Climbing Boston Center
Sun 03:11:07 PM 42.8853 -73.9383 329° Northwest 118 136 5,000 590 Climbing Boston Center
Sun 03:12:08 PM 42.9161 -73.9622 330° Northwest 118 136 5,600 541 Climbing Boston Center
Sun 03:12:58 PM 42.9378 -73.9803 329° Northwest 117 135 6,000 492 Climbing Boston Center
Sun 03:13:09 PM 42.9439 -73.9856 328° Northwest 117 135 6,100 492 Climbing Boston Center
Sun 03:13:59 PM 42.9656 -74.0044 327° Northwest 121 139 6,500 492 Climbing Boston Center
Sun 03:14:10 PM 42.9733 -74.0089 337° Northwest 121 139 6,600 492 Climbing Boston Center
Sun 03:15:00 PM 42.9972 -74.0300 327° Northwest 124 143 7,000 492 Climbing Boston Center
Sun 03:15:11 PM 43.0028 -74.0331 338° Northwest 122 140 7,100 400 Climbing Boston Center
Sun 03:16:00 PM 43.0272 -74.0550 327° Northwest 123 142 7,400 393 Climbing Boston Center
Sun 03:16:12 PM 43.0319 -74.0572 341° North 124 143 7,500 492 Climbing Boston Center
Sun 03:17:01 PM 43.0569 -74.0797 327° Northwest 124 143 7,900 492 Climbing Boston Center
Sun 03:17:13 PM 43.0614 -74.0828 333° Northwest 124 143 8,000 400 Climbing Boston Center
Sun 03:18:01 PM 43.0867 -74.1047 328° Northwest 126 145 8,300 393 Climbing Boston Center
Sun 03:18:14 PM 43.0942 -74.1086 339° North 126 145 8,400 81 Climbing Boston Center
Sun 03:19:15 PM 43.1267 -74.1339 330° Northwest 133 153 8,400  Level Boston Center
Sun 03:20:16 PM 43.1572 -74.1661 322° Northwest 138 159 8,400  Level Boston Center
Sun 03:21:17 PM 43.1936 -74.1933 331° Northwest 147 169 8,400  Level Boston Center
Sun 03:22:18 PM 43.2272 -74.2211 329° Northwest 142 163 8,400  Level Boston Center
Sun 03:23:19 PM 43.2597 -74.2508 326° Northwest 139 160 8,400  Level Boston Center
Sun 03:24:20 PM 43.2928 -74.2769 330° Northwest 138 159 8,400  Level Boston Center
Sun 03:25:21 PM 43.3278 -74.3039 331° Northwest 134 154 8,400  Level Boston Center
Sun 03:26:22 PM 43.3600 -74.3314 328° Northwest 135 155 8,400 49 Level Boston Center
Sun 03:27:23 PM 43.3908 -74.3592 327° Northwest 136 157 8,500 49 Climbing Boston Center
Sun 03:28:24 PM 43.4233 -74.3844 331° Northwest 134 154 8,500  Level Boston Center
Sun 03:29:25 PM 43.4547 -74.4122 327° Northwest 134 154 8,500  Level Boston Center
Sun 03:30:26 PM 43.4861 -74.4397 328° Northwest 134 154 8,500  Level Boston Center
Sun 03:31:27 PM 43.5186 -74.4678 328° Northwest 136 157 8,500  Level Boston Center
Sun 03:32:28 PM 43.5511 -74.4947 329° Northwest 136 157 8,500  Level Boston Center
Sun 03:33:29 PM 43.5844 -74.5206 331° Northwest 137 158 8,500  Level Boston Center
Sun 03:34:30 PM 43.6167 -74.5486 328° Northwest 137 158 8,500  Level Boston Center
Sun 03:35:32 PM 43.6550 -74.5808 329° Northwest 136 157 8,500  Level Boston Center
Sun 03:36:33 PM 43.6875 -74.6075 329° Northwest 136 157 8,500  Level Boston Center
Sun 03:37:34 PM 43.7194 -74.6353 328° Northwest 136 157 8,500  Level Boston Center
Sun 03:38:35 PM 43.7514 -74.6631 328° Northwest 136 157 8,500  Level Boston Center
Sun 03:39:36 PM 43.7847 -74.6908 329° Northwest 138 159 8,500  Level Boston Center
Sun 03:40:37 PM 43.8175 -74.7200 327° Northwest 139 160 8,500  Level Boston Center
Sun 03:41:39 PM 43.8494 -74.7481 328° Northwest 138 159 8,500  Level Boston Center
Sun 03:42:40 PM 43.8822 -74.7758 329° Northwest 138 159 8,500 49 Level Boston Center
Sun 03:43:41 PM 43.9158 -74.8039 329° Northwest 140 161 8,600 49 Climbing Boston Center
Sun 03:44:42 PM 43.9483 -74.8322 328° Northwest 139 160 8,600  Level Boston Center
Sun 03:45:43 PM 43.9894 -74.8644 331° Northwest 141 162 8,600 -49 Level Boston Center
Sun 03:46:44 PM 44.0214 -74.8928 327° Northwest 138 159 8,500 -293 Descending Boston Center
Sun 03:47:46 PM 44.0569 -74.9261 326° Northwest 148 170 8,000 -439 Descending Boston Center
Sun 03:48:47 PM 44.0950 -74.9581 329° Northwest 156 180 7,600 -393 Descending Boston Center
Sun 03:49:48 PM 44.1261 -74.9850 328° Northwest 160 184 7,200 -443 Descending Boston Center
Sun 03:50:49 PM 44.1708 -75.0211 330° Northwest 158 182 6,700 -443 Descending Boston Center
Sun 03:51:50 PM 44.2064 -75.0500 330° Northwest 153 176 6,300 -439 Descending Boston Center
Sun 03:52:52 PM 44.2444 -75.0808 330° Northwest 155 178 5,800 -443 Descending Boston Center
Sun 03:53:52 PM 44.2753 -75.1075 328° Northwest 158 182 5,400 -358 Descending Boston Center
Sun 03:55:06 PM 44.3278 -75.1492 330° Northwest 157 181 5,000 -444 Descending Boston Center
Sun 03:56:07 PM 44.3731 -75.1847 331° Northwest 156 180 4,400 -541 Descending Boston Center
Sun 03:57:08 PM 44.4111 -75.2139 331° Northwest 156 180 3,900 -390 Descending Boston Center
Sun 03:58:10 PM 44.4494 -75.2439 331° Northwest 157 181 3,600 -293 Descending Boston Center
Sun 03:59:11 PM 44.4864 -75.2733 330° Northwest 156 180 3,300 -295 Descending Boston Center

Login

Don't have an account? Register now (free) for customized features, flight alerts, and more!